createdAt,value
2019-03-25T00:00:45.772Z,3.65
2019-03-25T00:03:15.265Z,2.92
2019-03-25T00:05:44.840Z,3.20
2019-03-25T00:08:14.399Z,2.75
2019-03-25T00:10:43.971Z,2.60
2019-03-25T00:13:13.523Z,2.00
2019-03-25T00:15:43.103Z,2.95
2019-03-25T00:18:12.573Z,3.12
2019-03-25T00:20:42.082Z,2.72
2019-03-25T00:23:11.559Z,2.85
2019-03-25T00:25:41.167Z,2.50
2019-03-25T00:28:13.701Z,2.83
2019-03-25T00:30:42.792Z,2.72
2019-03-25T00:33:12.290Z,2.62
2019-03-25T00:35:41.852Z,2.98
2019-03-25T00:38:11.355Z,2.87
2019-03-25T00:40:40.842Z,2.65
2019-03-25T00:43:10.326Z,3.50
2019-03-25T00:45:39.829Z,2.20
2019-03-25T00:48:09.313Z,2.10
2019-03-25T00:50:38.842Z,3.40
2019-03-25T00:53:08.318Z,1.80
2019-03-25T00:55:37.804Z,2.17
2019-03-25T00:58:08.848Z,2.55
2019-03-25T01:00:38.649Z,1.80
2019-03-25T01:03:08.138Z,2.60
2019-03-25T01:05:37.677Z,2.10
2019-03-25T01:08:07.246Z,2.22
2019-03-25T01:10:36.795Z,2.60
2019-03-25T01:13:06.371Z,2.45
2019-03-25T01:15:35.950Z,2.37
2019-03-25T01:18:16.143Z,2.20
2019-03-25T01:20:36.772Z,2.65
2019-03-25T01:23:06.350Z,2.45
2019-03-25T01:25:35.916Z,2.70
2019-03-25T01:28:05.631Z,2.60
2019-03-25T01:30:35.174Z,2.80
2019-03-25T01:33:04.822Z,2.75
2019-03-25T01:35:34.344Z,2.52
2019-03-25T01:38:03.840Z,2.75
2019-03-25T01:40:33.419Z,2.80
2019-03-25T01:43:02.908Z,2.67
2019-03-25T01:45:32.408Z,2.65
2019-03-25T01:48:02.026Z,2.55
2019-03-25T01:50:31.578Z,3.37
2019-03-25T01:53:01.012Z,2.72
2019-03-25T01:55:30.515Z,3.05
2019-03-25T01:57:59.991Z,2.80
2019-03-25T02:00:29.618Z,2.70
2019-03-25T02:02:59.116Z,2.60
2019-03-25T02:05:28.632Z,2.40
2019-03-25T02:07:58.169Z,2.22
2019-03-25T02:10:27.688Z,2.30
2019-03-25T02:12:57.150Z,2.35
2019-03-25T02:15:26.635Z,1.87
2019-03-25T02:17:56.131Z,2.77
2019-03-25T02:20:26.882Z,2.95
2019-03-25T02:22:56.800Z,2.83
2019-03-25T02:25:26.423Z,3.05
2019-03-25T02:27:55.939Z,2.22
2019-03-25T02:30:25.521Z,2.85
2019-03-25T02:32:55.080Z,3.10
2019-03-25T02:35:24.571Z,2.98
2019-03-25T02:37:54.070Z,3.22
2019-03-25T02:40:23.542Z,2.22
2019-03-25T02:42:53.014Z,2.02
2019-03-25T02:45:22.661Z,2.55
2019-03-25T02:47:52.148Z,3.20
2019-03-25T02:50:21.689Z,2.85
2019-03-25T02:52:51.193Z,1.82
2019-03-25T02:55:20.665Z,3.62
2019-03-25T02:57:50.174Z,3.12
2019-03-25T03:00:35.221Z,3.15
2019-03-25T03:03:06.365Z,3.02
2019-03-25T03:05:36.769Z,3.70
2019-03-25T03:08:06.643Z,2.60
2019-03-25T03:10:36.356Z,2.35
2019-03-25T03:13:05.921Z,2.92
2019-03-25T03:15:35.473Z,2.90
2019-03-25T03:18:05.365Z,2.90
2019-03-25T03:20:34.866Z,3.35
2019-03-25T03:23:04.477Z,2.72
2019-03-25T03:25:34.019Z,2.25
2019-03-25T03:28:03.666Z,3.87
2019-03-25T03:30:33.225Z,3.60
2019-03-25T03:33:02.710Z,3.47
2019-03-25T03:35:32.205Z,3.25
2019-03-25T03:38:01.739Z,3.80
2019-03-25T03:40:31.235Z,3.80
2019-03-25T03:43:00.741Z,2.98
2019-03-25T03:45:30.247Z,2.27
2019-03-25T03:47:59.715Z,2.87
2019-03-25T03:50:29.694Z,2.95
2019-03-25T03:52:59.381Z,3.42
2019-03-25T03:55:29.913Z,3.80
2019-03-25T03:58:00.018Z,4.30
2019-03-25T04:00:34.717Z,3.40
2019-03-25T04:03:04.336Z,4.03
2019-03-25T04:05:33.983Z,5.87
2019-03-25T04:08:03.651Z,3.72
2019-03-25T04:10:33.145Z,4.05
2019-03-25T04:13:02.695Z,5.70
2019-03-25T04:15:33.413Z,3.10
2019-03-25T04:18:03.134Z,5.30
2019-03-25T04:20:32.950Z,4.35
2019-03-25T04:23:02.493Z,4.55
2019-03-25T04:25:32.002Z,3.55
2019-03-25T04:28:01.489Z,3.90
2019-03-25T04:30:31.068Z,4.20
2019-03-25T04:33:00.665Z,4.03
2019-03-25T04:35:30.153Z,4.08
2019-03-25T04:37:59.735Z,4.37
2019-03-25T04:40:29.283Z,5.28
2019-03-25T04:42:58.772Z,4.70
2019-03-25T04:45:28.277Z,6.15
2019-03-25T04:47:57.837Z,4.42
2019-03-25T04:50:27.328Z,4.00
2019-03-25T04:52:56.811Z,4.50
2019-03-25T04:55:26.364Z,4.40
2019-03-25T04:57:55.861Z,3.87
2019-03-25T05:00:36.438Z,4.33
2019-03-25T05:03:06.217Z,4.75
2019-03-25T05:05:36.289Z,4.62
2019-03-25T05:08:06.095Z,4.40
2019-03-25T05:10:35.595Z,3.80
2019-03-25T05:13:05.138Z,4.42
2019-03-25T05:15:34.644Z,3.33
2019-03-25T05:18:04.133Z,3.42
2019-03-25T05:20:33.654Z,3.47
2019-03-25T05:23:03.122Z,2.85
2019-03-25T05:25:32.674Z,4.15
2019-03-25T05:28:02.176Z,2.80
2019-03-25T05:30:31.659Z,2.65
2019-03-25T05:33:01.178Z,3.80
2019-03-25T05:35:30.666Z,3.55
2019-03-25T05:38:00.140Z,2.90
2019-03-25T05:40:32.626Z,2.65
2019-03-25T05:43:02.179Z,1.90
2019-03-25T05:45:31.684Z,2.80
2019-03-25T05:48:01.194Z,2.60
2019-03-25T05:50:30.679Z,2.75
2019-03-25T05:53:00.191Z,3.42
2019-03-25T05:55:32.725Z,3.80
2019-03-25T05:58:02.294Z,3.02
2019-03-25T06:00:33.432Z,3.50
2019-03-25T06:03:02.952Z,3.95
2019-03-25T06:05:32.422Z,3.08
2019-03-25T06:08:01.921Z,2.40
2019-03-25T06:10:31.429Z,2.77
2019-03-25T06:13:01.008Z,2.12
2019-03-25T06:15:30.474Z,1.85
2019-03-25T06:18:00.043Z,2.22
2019-03-25T06:20:29.566Z,1.70
2019-03-25T06:22:59.069Z,2.70
2019-03-25T06:25:28.554Z,1.77
2019-03-25T06:27:58.050Z,2.67
2019-03-25T06:30:27.549Z,3.00
2019-03-25T06:32:57.091Z,1.85
2019-03-25T06:35:26.668Z,2.50
2019-03-25T06:37:56.145Z,2.30
2019-03-25T06:40:25.621Z,2.35
2019-03-25T06:42:55.150Z,2.92
2019-03-25T06:45:24.703Z,2.40
2019-03-25T06:47:54.282Z,1.80
2019-03-25T06:50:23.833Z,1.82
2019-03-25T06:52:53.395Z,2.60
2019-03-25T06:55:23.120Z,2.20
2019-03-25T06:57:52.702Z,2.58
2019-03-25T07:00:22.591Z,2.25
2019-03-25T07:02:52.169Z,2.08
2019-03-25T07:05:21.742Z,2.62
2019-03-25T07:07:51.250Z,2.30
2019-03-25T07:10:58.337Z,1.70
2019-03-25T07:13:28.976Z,2.37
2019-03-25T07:15:58.492Z,2.45
2019-03-25T07:18:27.962Z,2.85
2019-03-25T07:20:57.555Z,2.50
2019-03-25T07:23:27.045Z,2.25
2019-03-25T07:25:56.570Z,2.15
2019-03-25T07:28:26.059Z,2.72
2019-03-25T07:30:55.539Z,2.45
2019-03-25T07:33:25.084Z,2.85
2019-03-25T07:35:54.571Z,2.98
2019-03-25T07:38:24.047Z,2.50
2019-03-25T07:40:53.702Z,1.57
2019-03-25T07:43:23.191Z,1.50
2019-03-25T07:45:52.715Z,1.77
2019-03-25T07:48:22.265Z,2.00
2019-03-25T07:50:51.761Z,2.60
2019-03-25T07:53:21.451Z,2.20
2019-03-25T07:55:50.947Z,2.05
2019-03-25T07:58:20.457Z,2.00
2019-03-25T08:00:50.049Z,2.85
2019-03-25T08:03:19.531Z,2.47
2019-03-25T08:05:49.026Z,2.77
2019-03-25T08:08:18.580Z,2.00
2019-03-25T08:10:48.133Z,1.80
2019-03-25T08:13:17.670Z,1.72
2019-03-25T08:15:47.338Z,2.12
2019-03-25T08:18:16.902Z,2.33
2019-03-25T08:20:46.438Z,1.62
2019-03-25T08:23:15.960Z,2.02
2019-03-25T08:25:45.447Z,2.77
2019-03-25T08:28:14.940Z,2.30
2019-03-25T08:30:44.497Z,2.30
2019-03-25T08:33:14.004Z,3.00
2019-03-25T08:35:43.673Z,2.83
2019-03-25T08:38:13.192Z,1.83
2019-03-25T08:40:42.692Z,1.43
2019-03-25T08:43:12.249Z,2.73
2019-03-25T08:45:41.827Z,2.13
2019-03-25T08:48:11.356Z,2.17
2019-03-25T08:50:41.056Z,2.90
2019-03-25T08:53:10.693Z,2.63
2019-03-25T08:55:40.190Z,2.00
2019-03-25T08:58:12.383Z,1.42
2019-03-25T09:00:41.122Z,1.75
2019-03-25T09:03:10.855Z,2.05
2019-03-25T09:05:40.440Z,2.05
2019-03-25T09:08:10.097Z,1.20
2019-03-25T09:10:39.662Z,2.05
2019-03-25T09:13:09.219Z,2.42
2019-03-25T09:15:38.771Z,2.17
2019-03-25T09:18:08.285Z,1.70
2019-03-25T09:20:37.871Z,1.65
2019-03-25T09:23:07.444Z,1.80
2019-03-25T09:25:36.998Z,1.90
2019-03-25T09:28:06.579Z,1.92
2019-03-25T09:30:58.822Z,1.85
2019-03-25T09:33:28.339Z,1.52
2019-03-25T09:35:58.043Z,1.30
2019-03-25T09:38:27.627Z,1.17
2019-03-25T09:40:57.207Z,1.10
2019-03-25T09:43:26.711Z,1.37
2019-03-25T09:45:56.223Z,0.80
2019-03-25T09:48:25.747Z,2.87
2019-03-25T09:50:55.327Z,1.00
2019-03-25T09:53:24.793Z,1.37
2019-03-25T09:55:56.228Z,1.20
2019-03-25T09:58:35.606Z,1.43
2019-03-25T10:00:57.114Z,1.97
2019-03-25T10:03:26.619Z,1.00
2019-03-25T10:05:56.565Z,1.20
2019-03-25T10:08:26.142Z,1.20
2019-03-25T10:10:55.635Z,1.30
2019-03-25T10:13:25.332Z,1.60
2019-03-25T10:15:54.806Z,1.20
2019-03-25T10:18:24.299Z,1.73
2019-03-25T10:20:53.950Z,2.10
2019-03-25T10:23:23.528Z,1.37
2019-03-25T10:25:53.074Z,1.57
2019-03-25T10:28:22.712Z,1.40
2019-03-25T10:30:52.350Z,1.80
2019-03-25T10:33:21.857Z,1.00
2019-03-25T10:35:51.487Z,1.70
2019-03-25T10:38:21.073Z,1.20
2019-03-25T10:40:50.734Z,1.03
2019-03-25T10:43:20.293Z,1.27
2019-03-25T10:45:49.867Z,1.30
2019-03-25T10:48:19.393Z,1.30
2019-03-25T10:50:49.125Z,0.85
2019-03-25T10:53:18.643Z,1.87
2019-03-25T10:55:48.232Z,0.80
2019-03-25T10:58:17.869Z,0.93
2019-03-25T11:00:47.449Z,1.27
2019-03-25T11:03:17.018Z,2.15
2019-03-25T11:05:46.576Z,0.90
2019-03-25T11:08:16.085Z,0.70
2019-03-25T11:10:45.595Z,1.37
2019-03-25T11:13:15.074Z,0.80
2019-03-25T11:15:44.678Z,1.10
2019-03-25T11:18:14.234Z,1.17
2019-03-25T11:20:43.707Z,1.37
2019-03-25T11:23:13.235Z,0.90
2019-03-25T11:25:42.811Z,1.23
2019-03-25T11:28:12.465Z,1.20
2019-03-25T11:30:57.180Z,1.00
2019-03-25T11:33:28.116Z,1.40
2019-03-25T11:35:57.910Z,1.50
2019-03-25T11:38:27.529Z,1.43
2019-03-25T11:40:57.259Z,1.47
2019-03-25T11:43:26.925Z,1.20
2019-03-25T11:45:56.590Z,1.33
2019-03-25T11:48:26.083Z,1.40
2019-03-25T11:50:55.564Z,1.33
2019-03-25T11:53:25.067Z,1.20
2019-03-25T11:55:54.693Z,1.23
2019-03-25T11:58:24.186Z,1.27
2019-03-25T12:00:54.563Z,1.90
2019-03-25T12:03:24.048Z,1.98
2019-03-25T12:05:53.696Z,2.05
2019-03-25T12:08:23.259Z,1.72
2019-03-25T12:10:52.815Z,1.05
2019-03-25T12:13:22.438Z,1.20
2019-03-25T12:15:51.996Z,1.40
2019-03-25T12:18:21.601Z,1.00
2019-03-25T12:20:51.077Z,1.35
2019-03-25T12:23:26.248Z,1.10
2019-03-25T12:25:51.887Z,1.12
2019-03-25T12:28:21.466Z,1.45
2019-03-25T12:30:52.360Z,1.10
2019-03-25T12:33:21.986Z,1.00
2019-03-25T12:35:51.483Z,1.00
2019-03-25T12:38:21.162Z,1.20
2019-03-25T12:40:50.747Z,1.33
2019-03-25T12:43:20.273Z,1.07
2019-03-25T12:45:49.913Z,1.03
2019-03-25T12:48:19.402Z,0.90
2019-03-25T12:50:48.939Z,1.20
2019-03-25T12:53:18.487Z,1.10
2019-03-25T12:55:48.059Z,1.23
2019-03-25T12:58:17.582Z,0.90
2019-03-25T13:00:47.262Z,1.20
2019-03-25T13:03:16.834Z,0.70
2019-03-25T13:05:46.393Z,0.70
2019-03-25T13:08:15.899Z,0.93
2019-03-25T13:10:45.392Z,0.80
2019-03-25T13:13:14.900Z,0.95
2019-03-25T13:15:44.458Z,0.95
2019-03-25T13:18:14.017Z,0.68
2019-03-25T13:20:43.519Z,1.05
2019-03-25T13:23:13.077Z,0.93
2019-03-25T13:25:42.610Z,0.87
2019-03-25T13:28:12.105Z,1.57
2019-03-25T13:30:41.598Z,0.90
2019-03-25T13:33:11.167Z,0.83
2019-03-25T13:35:40.686Z,1.00
2019-03-25T13:38:10.175Z,1.00
2019-03-25T13:40:39.663Z,0.83
2019-03-25T13:43:09.166Z,1.30
2019-03-25T13:45:38.650Z,1.10
2019-03-25T13:48:08.296Z,1.37
2019-03-25T13:50:37.793Z,1.80
2019-03-25T13:53:07.304Z,1.10
2019-03-25T13:55:36.781Z,0.90
2019-03-25T13:58:06.259Z,1.10
2019-03-25T14:00:40.367Z,0.83
2019-03-25T14:03:10.009Z,0.90
2019-03-25T14:05:39.585Z,0.73
2019-03-25T14:08:09.146Z,1.27
2019-03-25T14:10:38.814Z,1.13
2019-03-25T14:13:08.589Z,1.00
2019-03-25T14:15:38.178Z,1.07
2019-03-25T14:18:07.982Z,1.05
2019-03-25T14:20:37.545Z,1.80
2019-03-25T14:23:07.314Z,1.55
2019-03-25T14:25:36.778Z,2.22
2019-03-25T14:28:06.348Z,1.27
2019-03-25T14:30:35.893Z,1.17
2019-03-25T14:33:05.556Z,2.02
2019-03-25T14:35:35.094Z,1.22
2019-03-25T14:38:04.556Z,1.75
2019-03-25T14:40:34.146Z,2.20
2019-03-25T14:43:03.780Z,1.40
2019-03-25T14:45:33.289Z,1.60
2019-03-25T14:48:02.975Z,1.50
2019-03-25T14:50:32.484Z,1.50
2019-03-25T14:53:02.034Z,1.82
2019-03-25T14:55:31.520Z,1.85
2019-03-25T14:58:01.041Z,1.80
2019-03-25T15:00:30.534Z,1.50
2019-03-25T15:03:00.052Z,1.42
2019-03-25T15:05:29.632Z,1.98
2019-03-25T15:07:59.274Z,1.50
2019-03-25T15:10:28.795Z,1.40
2019-03-25T15:12:58.435Z,1.10
2019-03-25T15:15:28.055Z,1.50
2019-03-25T15:17:57.657Z,2.05
2019-03-25T15:20:27.136Z,1.12
2019-03-25T15:22:56.713Z,1.30
2019-03-25T15:25:26.291Z,2.50
2019-03-25T15:27:55.867Z,2.00
2019-03-25T15:30:35.596Z,1.57
2019-03-25T15:32:56.810Z,1.20
2019-03-25T15:35:26.297Z,1.00
2019-03-25T15:37:55.812Z,1.20
2019-03-25T15:40:26.495Z,1.23
2019-03-25T15:42:56.095Z,1.90
2019-03-25T15:45:25.546Z,2.90
2019-03-25T15:47:55.105Z,1.70
2019-03-25T15:50:24.703Z,4.23
2019-03-25T15:52:54.287Z,2.30
2019-03-25T15:55:24.301Z,2.27
2019-03-25T15:57:53.781Z,1.27
2019-03-25T16:00:23.736Z,1.57
2019-03-25T16:02:53.235Z,2.63
2019-03-25T16:05:22.816Z,1.30
2019-03-25T16:07:52.484Z,1.17
2019-03-25T16:10:23.549Z,0.90
2019-03-25T16:12:53.072Z,2.40
2019-03-25T16:15:40.568Z,1.40
2019-03-25T16:18:10.753Z,1.60
2019-03-25T16:20:40.334Z,1.10
2019-03-25T16:23:10.014Z,1.50
2019-03-25T16:25:39.532Z,2.08
2019-03-25T16:28:09.023Z,1.87
2019-03-25T16:30:38.591Z,1.65
2019-03-25T16:33:09.155Z,0.82
2019-03-25T16:35:38.819Z,1.35
2019-03-25T16:38:08.328Z,1.50
2019-03-25T16:40:37.815Z,1.00
2019-03-25T16:43:07.405Z,1.40
2019-03-25T16:45:36.919Z,1.95
2019-03-25T16:48:06.463Z,1.55
2019-03-25T16:50:35.970Z,2.60
2019-03-25T16:53:05.612Z,1.72
2019-03-25T16:55:35.129Z,2.58
2019-03-25T16:58:04.699Z,2.98
2019-03-25T17:00:34.244Z,2.35
2019-03-25T17:03:03.840Z,2.10
2019-03-25T17:05:34.253Z,2.25
2019-03-25T17:08:03.809Z,2.37
2019-03-25T17:10:33.307Z,2.20
2019-03-25T17:13:02.825Z,4.37
2019-03-25T17:15:33.489Z,2.25
2019-03-25T17:18:03.063Z,2.10
2019-03-25T17:20:32.637Z,1.80
2019-03-25T17:23:02.198Z,1.27
2019-03-25T17:25:31.744Z,1.50
2019-03-25T17:28:01.224Z,1.72
2019-03-25T17:30:30.834Z,2.20
2019-03-25T17:33:00.353Z,1.40
2019-03-25T17:35:29.837Z,1.70
2019-03-25T17:37:59.509Z,1.85
2019-03-25T17:40:29.068Z,2.20
2019-03-25T17:42:58.648Z,1.87
2019-03-25T17:45:28.195Z,2.22
2019-03-25T17:47:57.740Z,1.62
2019-03-25T17:50:27.251Z,0.88
2019-03-25T17:52:56.765Z,1.57
2019-03-25T17:55:26.418Z,1.55
2019-03-25T17:57:55.957Z,1.90
2019-03-25T18:00:49.966Z,1.55
2019-03-25T18:03:19.544Z,1.50
2019-03-25T18:05:49.060Z,1.98
2019-03-25T18:08:18.640Z,1.50
2019-03-25T18:10:48.282Z,1.20
2019-03-25T18:13:22.247Z,1.57
2019-03-25T18:15:49.101Z,1.55
2019-03-25T18:18:18.613Z,0.98
2019-03-25T18:20:48.165Z,1.52
2019-03-25T18:23:17.696Z,1.40
2019-03-25T18:25:47.178Z,1.70
2019-03-25T18:28:16.678Z,1.37
2019-03-25T18:30:46.213Z,1.55
2019-03-25T18:33:15.722Z,1.25
2019-03-25T18:35:45.273Z,1.98
2019-03-25T18:38:14.872Z,1.70
2019-03-25T18:40:44.441Z,1.70
2019-03-25T18:43:14.000Z,1.80
2019-03-25T18:45:43.668Z,1.82
2019-03-25T18:48:13.221Z,1.57
2019-03-25T18:50:42.727Z,1.42
2019-03-25T18:53:12.247Z,1.82
2019-03-25T18:55:41.826Z,1.60
2019-03-25T18:58:11.398Z,2.55
2019-03-25T19:00:40.868Z,2.33
2019-03-25T19:03:10.392Z,1.95
2019-03-25T19:05:39.939Z,1.45
2019-03-25T19:08:10.308Z,2.33
2019-03-25T19:10:39.776Z,2.33
2019-03-25T19:13:09.332Z,2.50
2019-03-25T19:15:38.835Z,2.45
2019-03-25T19:18:08.385Z,2.15
2019-03-25T19:20:37.897Z,1.62
2019-03-25T19:23:07.375Z,2.30
2019-03-25T19:25:36.953Z,1.35
2019-03-25T19:28:06.564Z,1.95
2019-03-25T19:30:36.136Z,2.15
2019-03-25T19:33:05.740Z,1.72
2019-03-25T19:35:35.305Z,1.50
2019-03-25T19:38:04.817Z,1.35
2019-03-25T19:40:34.387Z,1.55
2019-03-25T19:43:03.934Z,1.35
2019-03-25T19:45:33.590Z,2.42
2019-03-25T19:48:03.173Z,1.60
2019-03-25T19:50:32.761Z,2.15
2019-03-25T19:53:02.356Z,1.40
2019-03-25T19:55:31.897Z,2.55
2019-03-25T19:58:01.356Z,1.92
2019-03-25T20:00:37.411Z,1.65
2019-03-25T20:03:07.410Z,2.85
2019-03-25T20:05:37.054Z,2.47
2019-03-25T20:08:06.908Z,1.90
2019-03-25T20:10:38.116Z,2.22
2019-03-25T20:13:08.298Z,2.58
2019-03-25T20:15:57.266Z,2.15
2019-03-25T20:18:26.789Z,1.75
2019-03-25T20:20:56.322Z,2.00
2019-03-25T20:23:25.926Z,1.50
2019-03-25T20:25:55.547Z,1.92
2019-03-25T20:28:25.067Z,2.30
2019-03-25T20:30:54.730Z,2.35
2019-03-25T20:33:24.398Z,2.05
2019-03-25T20:35:53.962Z,1.90
2019-03-25T20:38:23.520Z,1.20
2019-03-25T20:40:53.198Z,1.95
2019-03-25T20:43:22.892Z,1.87
2019-03-25T20:45:52.390Z,1.70
2019-03-25T20:48:21.990Z,1.67
2019-03-25T20:50:51.620Z,2.77
2019-03-25T20:53:21.219Z,1.80
2019-03-25T20:55:50.743Z,2.22
2019-03-25T20:58:20.377Z,2.22
2019-03-25T21:00:52.555Z,2.58
2019-03-25T21:03:22.394Z,2.05
2019-03-25T21:05:52.081Z,2.12
2019-03-25T21:08:21.528Z,2.42
2019-03-25T21:10:51.142Z,2.02
2019-03-25T21:13:20.653Z,2.50
2019-03-25T21:15:50.376Z,2.12
2019-03-25T21:18:19.866Z,2.00
2019-03-25T21:20:49.399Z,2.20
2019-03-25T21:23:19.052Z,2.08
2019-03-25T21:25:48.653Z,1.90
2019-03-25T21:28:18.138Z,1.45
2019-03-25T21:30:48.556Z,1.90
2019-03-25T21:33:18.340Z,1.70
2019-03-25T21:35:47.911Z,1.77
2019-03-25T21:38:17.433Z,2.17
2019-03-25T21:40:47.147Z,1.77
2019-03-25T21:43:16.682Z,2.50
2019-03-25T21:45:46.299Z,1.02
2019-03-25T21:48:15.897Z,2.42
2019-03-25T21:50:45.455Z,2.15
2019-03-25T21:53:15.082Z,1.87
2019-03-25T21:55:44.841Z,1.40
2019-03-25T21:58:14.452Z,1.98
2019-03-25T22:00:44.009Z,2.02
2019-03-25T22:03:13.541Z,2.05
2019-03-25T22:05:44.562Z,2.05
2019-03-25T22:08:14.037Z,1.57
2019-03-25T22:10:43.579Z,1.62
2019-03-25T22:13:13.078Z,1.60
2019-03-25T22:15:43.508Z,1.32
2019-03-25T22:18:13.270Z,2.42
2019-03-25T22:20:42.819Z,1.65
2019-03-25T22:23:12.326Z,2.02
2019-03-25T22:25:41.814Z,1.60
2019-03-25T22:28:11.422Z,2.15
2019-03-25T22:30:40.968Z,2.20
2019-03-25T22:33:10.559Z,2.65
2019-03-25T22:35:40.047Z,1.90
2019-03-25T22:38:09.984Z,2.00
2019-03-25T22:40:39.513Z,1.75
2019-03-25T22:43:09.064Z,1.92
2019-03-25T22:45:38.572Z,1.72
2019-03-25T22:48:08.092Z,2.65
2019-03-25T22:50:37.685Z,2.15
2019-03-25T22:53:07.241Z,1.92
2019-03-25T22:55:36.728Z,2.60
2019-03-25T22:58:06.398Z,1.95
2019-03-25T23:00:40.597Z,3.50
2019-03-25T23:03:10.229Z,2.62
2019-03-25T23:05:39.735Z,1.62
2019-03-25T23:08:09.290Z,1.35
2019-03-25T23:10:38.890Z,1.80
2019-03-25T23:13:08.388Z,2.98
2019-03-25T23:15:37.877Z,3.72
2019-03-25T23:18:07.448Z,4.80
2019-03-25T23:20:36.998Z,3.80
2019-03-25T23:23:06.517Z,3.10
2019-03-25T23:25:36.065Z,3.92
2019-03-25T23:28:05.726Z,4.40
2019-03-25T23:30:35.294Z,2.35
2019-03-25T23:33:05.054Z,2.17
2019-03-25T23:35:34.615Z,2.02
2019-03-25T23:38:04.172Z,2.65
2019-03-25T23:40:33.694Z,3.08
2019-03-25T23:43:04.816Z,4.35
2019-03-25T23:45:34.375Z,3.72
2019-03-25T23:48:03.885Z,4.35
2019-03-25T23:50:33.482Z,3.08
2019-03-25T23:53:02.953Z,3.70
2019-03-25T23:55:32.454Z,3.85
2019-03-25T23:58:01.936Z,2.50
